Terminal Aerodrome Forecast
Issued by NWS

Home | Current Version | Previous Version | Text Only | Print | Product List | Glossary On
Versions: 1 2 3 4 5 6 7 8 9 10 11 12 13 14 15 16 17 18 19 20 21 22 23 24 25
000
FTUS43 KMKX 230240 AAA
TAFENW
TAF AMD
KENW 230240Z 2303/2324 33005KT P6SM VCSH OVC015
     FM230400 32005KT P6SM VCSH OVC040
     FM230600 31005KT P6SM OVC040
     FM231300 VRB03KT P6SM SCT070
     FM231800 26006KT P6SM BKN120=

USA.gov is the U.S. government's official web portal to all federal, state and local government web resources and services.